createdAt,value
2022-11-28T00:00:20.484Z,80.68
2022-11-28T00:01:20.344Z,80.58
2022-11-28T00:02:20.528Z,80.68
2022-11-28T00:03:20.444Z,80.58
2022-11-28T00:04:20.315Z,80.37
2022-11-28T00:05:20.366Z,80.79
2022-11-28T00:06:20.307Z,80.47
2022-11-28T00:07:20.335Z,80.47
2022-11-28T00:08:20.266Z,80.79
2022-11-28T00:09:20.256Z,80.58
2022-11-28T00:10:20.250Z,80.37
2022-11-28T00:11:20.242Z,80.47
2022-11-28T00:12:20.315Z,80.58
2022-11-28T00:13:20.219Z,80.47
2022-11-28T00:14:20.208Z,80.58
2022-11-28T00:15:20.190Z,80.58
2022-11-28T00:16:20.274Z,80.58
2022-11-28T00:17:20.169Z,80.54
2022-11-28T00:18:20.206Z,80.58
2022-11-28T00:19:20.271Z,80.85
2022-11-28T00:20:20.143Z,80.85
2022-11-28T00:21:20.130Z,80.79
2022-11-28T00:22:20.114Z,80.75
2022-11-28T00:23:20.157Z,80.89
2022-11-28T00:24:20.129Z,80.99
2022-11-28T00:25:20.114Z,80.96
2022-11-28T00:26:20.075Z,80.96
2022-11-28T00:27:20.057Z,80.96
2022-11-28T00:28:20.050Z,80.85
2022-11-28T00:29:20.051Z,80.75
2022-11-28T00:30:20.063Z,80.54
2022-11-28T00:31:20.100Z,80.54
2022-11-28T00:32:20.086Z,80.54
2022-11-28T00:33:19.997Z,80.33
2022-11-28T00:34:20.048Z,80.33
2022-11-28T00:35:20.086Z,80.54
2022-11-28T00:36:20.087Z,80.54
2022-11-28T00:37:19.951Z,80.75
2022-11-28T00:38:20.042Z,80.54
2022-11-28T00:39:19.925Z,80.54
2022-11-28T00:40:20.038Z,80.54
2022-11-28T00:41:19.903Z,80.54
2022-11-28T00:42:19.939Z,80.65
2022-11-28T00:43:19.879Z,80.54
2022-11-28T00:44:19.881Z,80.75
2022-11-28T00:45:19.868Z,80.33
2022-11-28T00:46:20.003Z,80.58
2022-11-28T00:47:19.853Z,80.54
2022-11-28T00:48:20.066Z,80.54
2022-11-28T00:49:19.814Z,80.33
2022-11-28T00:50:19.825Z,80.44
2022-11-28T00:51:19.907Z,80.54
2022-11-28T00:52:19.785Z,80.54
2022-11-28T00:53:19.767Z,80.54
2022-11-28T00:54:19.848Z,80.37
2022-11-28T00:55:19.753Z,80.79
2022-11-28T00:56:19.761Z,80.02
2022-11-28T00:57:19.724Z,80.02
2022-11-28T00:58:19.713Z,80.54
2022-11-28T00:59:19.701Z,80.06
2022-11-28T01:00:19.729Z,80.79
2022-11-28T01:01:19.733Z,80.75
2022-11-28T01:02:19.775Z,79.92
2022-11-28T01:03:19.654Z,80.06
2022-11-28T01:04:19.652Z,80.06
2022-11-28T01:05:19.663Z,80.54
2022-11-28T01:06:19.673Z,80.33
2022-11-28T01:07:19.756Z,80.47
2022-11-28T01:08:19.616Z,80.54
2022-11-28T01:09:19.640Z,80.06
2022-11-28T01:10:19.606Z,79.96
2022-11-28T01:11:19.569Z,80.47
2022-11-28T01:12:19.625Z,80.06
2022-11-28T01:13:19.549Z,80.16
2022-11-28T01:14:19.536Z,80.79
2022-11-28T01:15:19.522Z,80.68
2022-11-28T01:16:19.553Z,80.37
2022-11-28T01:17:19.499Z,80.16
2022-11-28T01:18:19.643Z,80.37
2022-11-28T01:19:19.479Z,79.96
2022-11-28T01:20:19.469Z,80.47
2022-11-28T01:21:19.462Z,80.47
2022-11-28T01:22:19.499Z,79.96
2022-11-28T01:23:19.553Z,80.68
2022-11-28T01:24:19.512Z,80.37
2022-11-28T01:25:19.408Z,80.47
2022-11-28T01:26:19.406Z,80.37
2022-11-28T01:27:19.408Z,80.37
2022-11-28T01:28:19.387Z,80.16
2022-11-28T01:29:19.451Z,80.16
2022-11-28T01:30:19.404Z,80.27
2022-11-28T01:31:19.485Z,79.96
2022-11-28T01:32:19.337Z,80.21
2022-11-28T01:33:19.363Z,80.16
2022-11-28T01:34:19.311Z,80.16
2022-11-28T01:35:19.327Z,80.37
2022-11-28T01:36:19.320Z,80.47
2022-11-28T01:37:19.341Z,80.41
2022-11-28T01:38:19.264Z,80.16
2022-11-28T01:39:19.371Z,80.21
2022-11-28T01:40:19.247Z,80.16
2022-11-28T01:41:19.235Z,80.16
2022-11-28T01:42:19.239Z,80.16
2022-11-28T01:43:19.223Z,80.58
2022-11-28T01:44:19.213Z,80.27
2022-11-28T01:45:19.195Z,80.16
2022-11-28T01:46:19.283Z,80.27
2022-11-28T01:47:19.169Z,80.37
2022-11-28T01:48:19.170Z,80.16
2022-11-28T01:49:19.146Z,80.27
2022-11-28T01:50:19.133Z,80.16
2022-11-28T01:51:19.124Z,80.16
2022-11-28T01:52:19.116Z,80.16
2022-11-28T01:53:19.099Z,80.27
2022-11-28T01:54:19.118Z,80.27
2022-11-28T01:55:19.198Z,80.37
2022-11-28T01:56:19.066Z,80.16
2022-11-28T01:57:19.086Z,79.96
2022-11-28T01:58:19.058Z,80.16
2022-11-28T01:59:19.037Z,80.37
2022-11-28T02:00:19.219Z,80.16
2022-11-28T02:01:19.122Z,80.16
2022-11-28T02:02:19.087Z,80.06
2022-11-28T02:03:18.989Z,80.06
2022-11-28T02:04:18.981Z,80.16
2022-11-28T02:05:18.979Z,80.75
2022-11-28T02:06:18.991Z,80.16
2022-11-28T02:07:18.992Z,80.44
2022-11-28T02:08:18.940Z,80.44
2022-11-28T02:09:18.923Z,80.54
2022-11-28T02:10:18.905Z,80.33
2022-11-28T02:11:19.024Z,80.23
2022-11-28T02:12:18.918Z,80.54
2022-11-28T02:13:18.883Z,80.54
2022-11-28T02:14:18.872Z,80.54
2022-11-28T02:15:18.853Z,80.54
2022-11-28T02:16:18.958Z,80.54
2022-11-28T02:17:18.829Z,80.54
2022-11-28T02:18:18.879Z,80.54
2022-11-28T02:19:18.826Z,80.54
2022-11-28T02:20:18.799Z,80.65
2022-11-28T02:21:18.805Z,80.75
2022-11-28T02:22:18.774Z,80.51
2022-11-28T02:23:18.771Z,80.65
2022-11-28T02:24:18.817Z,80.54
2022-11-28T02:25:18.754Z,80.51
2022-11-28T02:26:18.752Z,80.44
2022-11-28T02:27:18.838Z,80.40
2022-11-28T02:28:18.708Z,80.51
2022-11-28T02:29:18.696Z,80.51
2022-11-28T02:30:18.735Z,80.54
2022-11-28T02:31:18.804Z,80.54
2022-11-28T02:32:18.687Z,80.51
2022-11-28T02:33:18.650Z,80.61
2022-11-28T02:34:18.690Z,80.51
2022-11-28T02:35:18.628Z,80.51
2022-11-28T02:36:18.709Z,80.40
2022-11-28T02:37:18.613Z,80.40
2022-11-28T02:38:18.601Z,80.30
2022-11-28T02:39:18.584Z,80.51
2022-11-28T02:40:18.578Z,80.40
2022-11-28T02:41:18.561Z,80.51
2022-11-28T02:42:18.590Z,80.51
2022-11-28T02:43:18.653Z,80.61
2022-11-28T02:44:18.530Z,80.51
2022-11-28T02:45:18.523Z,80.61
2022-11-28T02:46:18.590Z,80.51
2022-11-28T02:47:18.500Z,80.61
2022-11-28T02:48:18.511Z,80.51
2022-11-28T02:49:18.490Z,80.40
2022-11-28T02:50:18.537Z,80.40
2022-11-28T02:51:18.479Z,80.51
2022-11-28T02:52:18.450Z,80.51
2022-11-28T02:53:18.434Z,80.61
2022-11-28T02:54:18.518Z,80.51
2022-11-28T02:55:18.403Z,80.51
2022-11-28T02:56:18.400Z,80.61
2022-11-28T02:57:18.379Z,80.71
2022-11-28T02:58:18.392Z,80.82
2022-11-28T02:59:18.508Z,80.92
2022-11-28T03:00:18.400Z,80.92
2022-11-28T03:01:18.410Z,80.92
2022-11-28T03:02:18.393Z,80.82
2022-11-28T03:03:18.318Z,81.13
2022-11-28T03:04:18.334Z,81.13
2022-11-28T03:05:18.350Z,81.02
2022-11-28T03:06:18.320Z,80.92
2022-11-28T03:07:18.363Z,81.02
2022-11-28T03:08:18.264Z,81.02
2022-11-28T03:09:18.252Z,80.71
2022-11-28T03:10:18.255Z,80.82
2022-11-28T03:11:18.291Z,80.82
2022-11-28T03:12:18.246Z,80.92
2022-11-28T03:13:18.317Z,80.92
2022-11-28T03:14:18.200Z,80.92
2022-11-28T03:15:18.301Z,80.92
2022-11-28T03:16:18.235Z,80.82
2022-11-28T03:17:18.168Z,80.82
2022-11-28T03:18:18.217Z,80.92
2022-11-28T03:19:18.139Z,80.82
2022-11-28T03:20:18.131Z,80.71
2022-11-28T03:21:18.111Z,80.92
2022-11-28T03:22:18.118Z,80.82
2022-11-28T03:23:18.091Z,80.71
2022-11-28T03:24:18.129Z,81.02
2022-11-28T03:25:18.070Z,81.13
2022-11-28T03:26:18.082Z,80.92
2022-11-28T03:27:18.049Z,81.02
2022-11-28T03:28:18.036Z,80.92
2022-11-28T03:29:18.053Z,80.92
2022-11-28T03:30:18.068Z,80.82
2022-11-28T03:31:18.186Z,80.82
2022-11-28T03:32:18.014Z,80.82
2022-11-28T03:33:17.983Z,80.71
2022-11-28T03:34:18.090Z,80.51
2022-11-28T03:35:17.957Z,80.51
2022-11-28T03:36:18.024Z,80.61
2022-11-28T03:37:17.934Z,80.82
2022-11-28T03:38:17.930Z,80.61
2022-11-28T03:39:17.911Z,80.61
2022-11-28T03:40:17.922Z,80.51
2022-11-28T03:41:17.895Z,80.51
2022-11-28T03:42:17.897Z,80.82
2022-11-28T03:43:17.870Z,80.92
2022-11-28T03:44:17.850Z,80.92
2022-11-28T03:45:17.847Z,80.92
2022-11-28T03:46:17.896Z,80.82
2022-11-28T03:47:17.943Z,80.82
2022-11-28T03:48:17.929Z,80.71
2022-11-28T03:49:17.817Z,80.82
2022-11-28T03:50:17.793Z,80.51
2022-11-28T03:51:17.778Z,80.33
2022-11-28T03:52:17.768Z,80.51
2022-11-28T03:53:17.757Z,80.82
2022-11-28T03:54:17.786Z,80.51
2022-11-28T03:55:17.794Z,80.23
2022-11-28T03:56:17.722Z,80.82
2022-11-28T03:57:17.826Z,80.71
2022-11-28T03:58:17.695Z,80.33
2022-11-28T03:59:17.698Z,80.19
2022-11-28T04:00:17.705Z,80.30
2022-11-28T04:01:17.737Z,80.40
2022-11-28T04:02:17.657Z,80.19
2022-11-28T04:03:17.850Z,80.02
2022-11-28T04:04:17.650Z,79.92
2022-11-28T04:05:17.619Z,80.71
2022-11-28T04:06:17.654Z,80.30
2022-11-28T04:07:17.645Z,79.88
2022-11-28T04:08:17.585Z,80.71
2022-11-28T04:09:17.607Z,80.33
2022-11-28T04:10:17.569Z,80.09
2022-11-28T04:11:17.582Z,80.30
2022-11-28T04:12:17.571Z,80.23
2022-11-28T04:13:17.534Z,80.44
2022-11-28T04:14:17.547Z,80.65
2022-11-28T04:15:17.548Z,80.23
2022-11-28T04:16:17.600Z,80.19
2022-11-28T04:17:17.529Z,80.40
2022-11-28T04:18:17.511Z,80.65
2022-11-28T04:19:17.580Z,79.92
2022-11-28T04:20:17.448Z,80.44
2022-11-28T04:21:17.447Z,79.99
2022-11-28T04:22:17.427Z,79.92
2022-11-28T04:23:17.425Z,80.75
2022-11-28T04:24:17.503Z,79.92
2022-11-28T04:25:17.395Z,80.61
2022-11-28T04:26:17.391Z,80.40
2022-11-28T04:27:17.378Z,80.30
2022-11-28T04:28:17.385Z,80.19
2022-11-28T04:29:17.360Z,80.19
2022-11-28T04:30:17.404Z,79.88
2022-11-28T04:31:17.406Z,80.19
2022-11-28T04:32:17.320Z,79.88
2022-11-28T04:33:17.316Z,80.09
2022-11-28T04:34:17.307Z,80.44
2022-11-28T04:35:17.403Z,80.19
2022-11-28T04:36:17.334Z,80.30
2022-11-28T04:37:17.261Z,80.23
2022-11-28T04:38:17.245Z,79.88
2022-11-28T04:39:17.258Z,79.99
2022-11-28T04:40:17.231Z,80.30
2022-11-28T04:41:17.217Z,80.51
2022-11-28T04:42:17.253Z,80.51
2022-11-28T04:43:17.193Z,80.30
2022-11-28T04:44:17.199Z,80.30
2022-11-28T04:45:17.174Z,80.30
2022-11-28T04:46:17.233Z,79.88
2022-11-28T04:47:17.153Z,79.88
2022-11-28T04:48:17.187Z,80.40
2022-11-28T04:49:17.141Z,79.88
2022-11-28T04:50:17.128Z,80.09
2022-11-28T04:51:17.223Z,80.30
2022-11-28T04:52:17.095Z,80.09
2022-11-28T04:53:17.084Z,80.09
2022-11-28T04:54:17.102Z,80.40
2022-11-28T04:55:17.108Z,80.19
2022-11-28T04:56:17.048Z,80.30
2022-11-28T04:57:17.042Z,80.40
2022-11-28T04:58:17.096Z,79.92
2022-11-28T04:59:17.022Z,80.40
2022-11-28T05:00:17.054Z,79.88
2022-11-28T05:01:17.032Z,80.19
2022-11-28T05:02:17.109Z,79.99
2022-11-28T05:03:16.972Z,80.40
2022-11-28T05:04:16.963Z,80.40
2022-11-28T05:05:16.946Z,80.40
2022-11-28T05:06:16.972Z,80.19
2022-11-28T05:07:17.114Z,79.88
2022-11-28T05:08:16.919Z,80.30
2022-11-28T05:09:16.906Z,80.09
2022-11-28T05:10:16.908Z,79.88
2022-11-28T05:11:16.885Z,80.19
2022-11-28T05:12:16.983Z,80.30
2022-11-28T05:13:16.860Z,80.30
2022-11-28T05:14:16.862Z,79.88
2022-11-28T05:15:16.833Z,80.71
2022-11-28T05:16:16.943Z,80.71
2022-11-28T05:17:16.814Z,80.09
2022-11-28T05:18:16.840Z,80.40
2022-11-28T05:19:16.789Z,80.71
2022-11-28T05:20:16.797Z,80.40
2022-11-28T05:21:16.770Z,80.40
2022-11-28T05:22:16.782Z,80.40
2022-11-28T05:23:16.867Z,79.92
2022-11-28T05:24:16.812Z,79.92
2022-11-28T05:25:16.727Z,79.88
2022-11-28T05:26:16.710Z,80.40
2022-11-28T05:27:16.703Z,80.30
2022-11-28T05:28:16.692Z,80.40
2022-11-28T05:29:16.676Z,80.75
2022-11-28T05:30:16.767Z,80.09
2022-11-28T05:31:16.701Z,80.19
2022-11-28T05:32:16.661Z,80.65
2022-11-28T05:33:16.637Z,80.33
2022-11-28T05:34:16.628Z,80.33
2022-11-28T05:35:16.632Z,80.13
2022-11-28T05:36:16.675Z,80.13
2022-11-28T05:37:16.588Z,80.13
2022-11-28T05:38:16.576Z,80.13
2022-11-28T05:39:16.787Z,80.13
2022-11-28T05:40:16.554Z,80.13
2022-11-28T05:41:16.708Z,80.13
2022-11-28T05:42:16.550Z,80.13
2022-11-28T05:43:16.527Z,80.23
2022-11-28T05:44:16.516Z,80.65
2022-11-28T05:45:16.516Z,80.02
2022-11-28T05:46:16.580Z,80.23
2022-11-28T05:47:16.552Z,80.33
2022-11-28T05:48:16.498Z,79.92
2022-11-28T05:49:16.486Z,80.23
2022-11-28T05:50:16.443Z,80.13
2022-11-28T05:51:16.436Z,80.13
2022-11-28T05:52:16.422Z,80.37
2022-11-28T05:53:16.415Z,80.23
2022-11-28T05:54:16.460Z,80.33
2022-11-28T05:55:16.506Z,80.13
2022-11-28T05:56:16.380Z,80.13
2022-11-28T05:57:16.366Z,80.54
2022-11-28T05:58:16.353Z,80.23
2022-11-28T05:59:16.341Z,80.13
2022-11-28T06:00:16.389Z,80.23
2022-11-28T06:01:16.329Z,80.13
2022-11-28T06:02:16.413Z,80.13
2022-11-28T06:03:16.296Z,80.37
2022-11-28T06:04:16.357Z,80.23
2022-11-28T06:05:41.190Z,80.23
2022-11-28T06:06:17.347Z,80.54
2022-11-28T06:07:16.352Z,80.13
2022-11-28T06:08:16.241Z,80.13
2022-11-28T06:09:16.250Z,80.13
2022-11-28T06:10:16.227Z,80.54
2022-11-28T06:11:16.331Z,80.13
2022-11-28T06:12:16.256Z,79.92
2022-11-28T06:13:16.187Z,80.44
2022-11-28T06:14:16.179Z,79.92
2022-11-28T06:15:16.169Z,80.13
2022-11-28T06:16:16.215Z,79.61
2022-11-28T06:17:16.144Z,80.02
2022-11-28T06:18:16.185Z,79.92
2022-11-28T06:19:16.116Z,80.13
2022-11-28T06:20:16.296Z,80.02
2022-11-28T06:21:16.115Z,79.61
2022-11-28T06:22:16.102Z,79.92
2022-11-28T06:23:16.071Z,80.13
2022-11-28T06:24:16.080Z,80.13
2022-11-28T06:25:16.048Z,79.71
2022-11-28T06:26:16.039Z,80.30
2022-11-28T06:27:16.145Z,80.09
2022-11-28T06:28:16.026Z,79.99
2022-11-28T06:29:16.027Z,79.78
2022-11-28T06:30:16.054Z,79.61
2022-11-28T06:31:16.051Z,80.02
2022-11-28T06:32:21.689Z,79.58
2022-11-28T06:33:17.004Z,79.68
2022-11-28T06:34:15.957Z,79.88
2022-11-28T06:35:15.939Z,80.19
2022-11-28T06:36:16.117Z,79.88
2022-11-28T06:37:15.921Z,79.99
2022-11-28T06:38:15.908Z,80.02
2022-11-28T06:39:15.930Z,79.88
2022-11-28T06:40:15.902Z,79.88
2022-11-28T06:41:15.878Z,79.88
2022-11-28T06:42:15.897Z,79.99
2022-11-28T06:43:15.972Z,80.09
2022-11-28T06:44:15.840Z,79.78
2022-11-28T06:45:15.827Z,79.68
2022-11-28T06:46:16.696Z,79.78
2022-11-28T06:47:15.806Z,79.68
2022-11-28T06:48:15.813Z,79.85
2022-11-28T06:49:15.789Z,79.95
2022-11-28T06:50:15.841Z,79.95
2022-11-28T06:51:15.768Z,79.95
2022-11-28T06:52:15.795Z,79.95
2022-11-28T06:53:15.740Z,79.95
2022-11-28T06:54:15.934Z,80.16
2022-11-28T06:55:15.783Z,80.16
2022-11-28T06:56:15.704Z,79.95
2022-11-28T06:57:15.713Z,79.95
2022-11-28T06:58:15.684Z,79.85
2022-11-28T06:59:15.795Z,80.05
2022-11-28T07:00:15.735Z,79.95
2022-11-28T07:01:15.727Z,79.54
2022-11-28T07:02:15.735Z,80.05
2022-11-28T07:03:15.648Z,79.44
2022-11-28T07:04:15.641Z,79.33
2022-11-28T07:05:15.605Z,79.40
2022-11-28T07:06:15.693Z,79.60
2022-11-28T07:07:16.807Z,79.50
2022-11-28T07:08:15.616Z,79.30
2022-11-28T07:09:15.614Z,79.50
2022-11-28T07:10:15.548Z,79.50
2022-11-28T07:11:15.578Z,79.40
2022-11-28T07:12:15.575Z,79.50
2022-11-28T07:13:15.532Z,79.60
2022-11-28T07:14:15.529Z,79.40
2022-11-28T07:15:15.622Z,79.36
2022-11-28T07:16:15.604Z,79.47
2022-11-28T07:17:15.476Z,79.16
2022-11-28T07:18:15.511Z,79.16
2022-11-28T07:19:15.458Z,79.26
2022-11-28T07:20:15.448Z,79.26
2022-11-28T07:21:15.432Z,79.26
2022-11-28T07:22:15.424Z,79.57
2022-11-28T07:23:15.411Z,79.26
2022-11-28T07:24:15.442Z,79.26
2022-11-28T07:25:15.421Z,79.26
2022-11-28T07:26:15.383Z,79.26
2022-11-28T07:27:15.959Z,79.43
2022-11-28T07:28:18.427Z,79.67
2022-11-28T07:29:16.368Z,79.36
2022-11-28T07:30:15.335Z,79.53
2022-11-28T07:31:15.590Z,79.53
2022-11-28T07:32:15.314Z,79.33
2022-11-28T07:33:15.329Z,79.53
2022-11-28T07:34:15.284Z,79.53
2022-11-28T07:35:15.323Z,79.63
2022-11-28T07:36:15.269Z,79.53
2022-11-28T07:37:15.265Z,79.53
2022-11-28T07:38:15.250Z,79.49
2022-11-28T07:39:15.292Z,79.08
2022-11-28T07:40:15.247Z,78.88
2022-11-28T07:41:15.242Z,78.98
2022-11-28T07:42:15.199Z,78.98
2022-11-28T07:43:15.474Z,79.08
2022-11-28T07:44:15.175Z,78.88
2022-11-28T07:45:15.179Z,78.88
2022-11-28T07:46:15.289Z,78.88
2022-11-28T07:47:15.198Z,78.98
2022-11-28T07:48:15.165Z,78.98
2022-11-28T07:49:15.129Z,78.94
2022-11-28T07:50:15.202Z,79.66
2022-11-28T07:51:15.099Z,78.98
2022-11-28T07:52:15.084Z,78.94
2022-11-28T07:53:15.108Z,78.84
2022-11-28T07:54:15.063Z,78.94
2022-11-28T07:55:15.047Z,78.84
2022-11-28T07:56:15.042Z,78.84
2022-11-28T07:57:15.045Z,78.94
2022-11-28T07:58:15.021Z,78.84
2022-11-28T07:59:15.045Z,78.84
2022-11-28T08:00:14.995Z,79.05
2022-11-28T08:01:14.992Z,79.15
2022-11-28T08:02:15.047Z,79.15
2022-11-28T08:03:14.987Z,78.94
2022-11-28T08:04:15.050Z,79.15
2022-11-28T08:05:15.113Z,79.11
2022-11-28T08:06:14.927Z,79.25
2022-11-28T08:07:15.584Z,79.15
2022-11-28T08:08:14.907Z,78.94
2022-11-28T08:09:14.896Z,78.94
2022-11-28T08:10:14.880Z,78.94
2022-11-28T08:11:14.897Z,78.94
2022-11-28T08:12:14.878Z,79.05
2022-11-28T08:13:14.891Z,79.25
2022-11-28T08:14:14.864Z,79.15
2022-11-28T08:15:14.827Z,79.05
2022-11-28T08:16:14.874Z,78.80
2022-11-28T08:17:14.837Z,79.15
2022-11-28T08:18:14.810Z,78.84
2022-11-28T08:19:14.818Z,79.05
2022-11-28T08:20:14.828Z,79.36
2022-11-28T08:21:14.758Z,78.94
2022-11-28T08:22:14.828Z,79.25
2022-11-28T08:23:14.793Z,78.94
2022-11-28T08:24:14.739Z,79.22
2022-11-28T08:25:14.717Z,78.80
2022-11-28T08:26:14.730Z,79.11
2022-11-28T08:27:14.702Z,78.80
2022-11-28T08:28:14.675Z,79.22
2022-11-28T08:29:14.693Z,78.80
2022-11-28T08:30:14.657Z,78.80
2022-11-28T08:31:14.689Z,79.11
2022-11-28T08:32:14.638Z,79.11
2022-11-28T08:33:14.622Z,79.22
2022-11-28T08:34:14.608Z,79.01
2022-11-28T08:35:14.647Z,79.01
2022-11-28T08:36:14.602Z,78.91
2022-11-28T08:37:14.580Z,78.77
2022-11-28T08:38:14.578Z,78.97
2022-11-28T08:39:24.316Z,79.08
2022-11-28T08:40:15.896Z,79.08
2022-11-28T08:41:15.468Z,79.08
2022-11-28T08:42:14.520Z,79.18
2022-11-28T08:43:14.521Z,79.18
2022-11-28T08:44:14.512Z,79.08
2022-11-28T08:45:14.513Z,79.08
2022-11-28T08:46:14.584Z,79.18
2022-11-28T08:47:14.467Z,79.18
2022-11-28T08:48:14.453Z,79.28
2022-11-28T08:49:14.464Z,79.18
2022-11-28T08:50:14.428Z,79.18
2022-11-28T08:51:14.447Z,79.25
2022-11-28T08:52:14.426Z,79.14
2022-11-28T08:53:18.486Z,79.04
2022-11-28T08:54:14.392Z,79.35
2022-11-28T08:55:14.380Z,79.04
2022-11-28T08:56:14.366Z,79.04
2022-11-28T08:57:14.349Z,79.14
2022-11-28T08:58:14.371Z,79.04
2022-11-28T08:59:14.370Z,79.04
2022-11-28T09:00:14.319Z,79.25
2022-11-28T09:01:14.384Z,79.25
2022-11-28T09:02:14.293Z,79.14
2022-11-28T09:03:14.302Z,79.04
2022-11-28T09:04:14.385Z,79.45
2022-11-28T09:05:14.265Z,79.04
2022-11-28T09:06:14.252Z,79.45
2022-11-28T09:07:14.382Z,79.31
2022-11-28T09:08:14.228Z,79.11
2022-11-28T09:09:14.243Z,78.90
2022-11-28T09:10:14.242Z,79.41
2022-11-28T09:11:14.197Z,79.35
2022-11-28T09:12:14.188Z,79.41
2022-11-28T09:13:14.174Z,79.21
2022-11-28T09:14:14.160Z,79.11
2022-11-28T09:15:14.153Z,79.00
2022-11-28T09:16:14.400Z,79.21
2022-11-28T09:17:14.242Z,79.21
2022-11-28T09:18:14.126Z,79.00
2022-11-28T09:19:14.109Z,79.52
2022-11-28T09:20:14.106Z,79.11
2022-11-28T09:21:14.091Z,78.90
2022-11-28T09:22:14.151Z,78.34
2022-11-28T09:23:14.083Z,78.49
2022-11-28T09:24:14.150Z,78.55
2022-11-28T09:25:14.045Z,78.45
2022-11-28T09:26:14.036Z,78.04
2022-11-28T09:27:14.026Z,78.04
2022-11-28T09:28:14.037Z,78.34
2022-11-28T09:29:14.019Z,78.14
2022-11-28T09:30:14.045Z,78.00
2022-11-28T09:31:14.058Z,78.00
2022-11-28T09:32:13.970Z,77.90
2022-11-28T09:33:13.977Z,77.90
2022-11-28T09:34:14.001Z,78.11
2022-11-28T09:35:13.928Z,78.41
2022-11-28T09:36:13.927Z,77.86
2022-11-28T09:37:13.926Z,77.97
2022-11-28T09:38:13.903Z,77.86
2022-11-28T09:39:14.040Z,78.17
2022-11-28T09:40:14.237Z,77.97
2022-11-28T09:41:13.871Z,77.76
2022-11-28T09:42:13.849Z,77.76
2022-11-28T09:43:13.848Z,77.66
2022-11-28T09:44:13.833Z,77.86
2022-11-28T09:45:13.819Z,77.66
2022-11-28T09:46:14.003Z,77.76
2022-11-28T09:47:13.798Z,77.76
2022-11-28T09:48:13.805Z,77.66
2022-11-28T09:49:13.777Z,77.76
2022-11-28T09:50:13.758Z,77.86
2022-11-28T09:51:13.794Z,77.86
2022-11-28T09:52:13.809Z,77.66
2022-11-28T09:53:13.738Z,77.76
2022-11-28T09:54:13.725Z,77.62
2022-11-28T09:55:13.728Z,77.83
2022-11-28T09:56:13.696Z,77.72
2022-11-28T09:57:13.683Z,77.76
2022-11-28T09:58:13.701Z,77.86
2022-11-28T09:59:13.661Z,77.62
2022-11-28T10:00:13.650Z,77.62
2022-11-28T10:01:13.700Z,77.62
2022-11-28T10:02:13.628Z,77.72
2022-11-28T10:03:13.662Z,77.72
2022-11-28T10:04:13.861Z,77.79
2022-11-28T10:05:13.689Z,77.79
2022-11-28T10:06:13.581Z,77.69
2022-11-28T10:07:13.681Z,77.69
2022-11-28T10:08:13.557Z,77.58
2022-11-28T10:09:16.522Z,77.55
2022-11-28T10:10:13.564Z,77.55
2022-11-28T10:11:14.510Z,77.55
2022-11-28T10:12:13.536Z,77.45
2022-11-28T10:13:13.502Z,77.45
2022-11-28T10:14:14.484Z,77.55
2022-11-28T10:15:13.995Z,77.55
2022-11-28T10:16:13.571Z,77.55
2022-11-28T10:17:13.506Z,77.75
2022-11-28T10:18:13.452Z,77.65
2022-11-28T10:19:31.582Z,77.72
2022-11-28T10:20:14.444Z,77.62
2022-11-28T10:21:13.414Z,77.62
2022-11-28T10:22:13.580Z,77.51
2022-11-28T10:23:13.392Z,77.72
2022-11-28T10:24:13.397Z,77.72
2022-11-28T10:25:13.372Z,77.82
2022-11-28T10:26:13.363Z,77.82
2022-11-28T10:27:13.371Z,77.82
2022-11-28T10:28:13.375Z,77.78
2022-11-28T10:29:13.327Z,77.82
2022-11-28T10:30:13.322Z,77.51
2022-11-28T10:31:13.435Z,77.72
2022-11-28T10:32:13.294Z,77.72
2022-11-28T10:33:13.288Z,77.68
2022-11-28T10:34:13.290Z,77.78
2022-11-28T10:35:13.264Z,77.68
2022-11-28T10:36:13.250Z,77.78
2022-11-28T10:37:13.233Z,77.68
2022-11-28T10:38:13.226Z,77.68
2022-11-28T10:39:13.225Z,77.78
2022-11-28T10:40:13.250Z,77.65
2022-11-28T10:41:13.193Z,77.65
2022-11-28T10:42:13.200Z,77.75
2022-11-28T10:43:13.193Z,77.55
2022-11-28T10:44:18.392Z,77.55
2022-11-28T10:45:14.259Z,77.75
2022-11-28T10:46:13.252Z,77.44
2022-11-28T10:47:13.147Z,77.55
2022-11-28T10:48:38.482Z,77.58
2022-11-28T10:49:14.106Z,77.48
2022-11-28T10:50:13.096Z,77.58
2022-11-28T10:51:13.542Z,77.68
2022-11-28T10:52:13.130Z,77.68
2022-11-28T10:53:13.110Z,77.68
2022-11-28T10:54:13.045Z,77.65
2022-11-28T10:55:13.036Z,77.65
2022-11-28T10:56:13.035Z,77.55
2022-11-28T10:57:13.048Z,77.65
2022-11-28T10:58:13.054Z,77.44
2022-11-28T10:59:13.013Z,77.34
2022-11-28T11:00:12.974Z,77.61
2022-11-28T11:01:13.042Z,77.61
2022-11-28T11:02:13.013Z,77.51
2022-11-28T11:03:13.016Z,77.34
2022-11-28T11:04:12.973Z,77.51
2022-11-28T11:05:12.922Z,77.61
2022-11-28T11:06:12.981Z,77.51
2022-11-28T11:07:17.696Z,77.40
2022-11-28T11:08:14.064Z,77.30
2022-11-28T11:09:12.876Z,77.30
2022-11-28T11:10:12.866Z,77.71
2022-11-28T11:11:12.859Z,77.71
2022-11-28T11:12:12.840Z,77.51
2022-11-28T11:13:12.836Z,77.61
2022-11-28T11:14:12.843Z,77.47
2022-11-28T11:15:12.864Z,77.37
2022-11-28T11:16:12.878Z,77.26
2022-11-28T11:17:12.782Z,77.47
2022-11-28T11:18:12.769Z,77.47
2022-11-28T11:19:12.781Z,77.47
2022-11-28T11:20:12.892Z,77.58
2022-11-28T11:21:12.749Z,77.26
2022-11-28T11:22:12.734Z,77.37
2022-11-28T11:23:12.743Z,77.47
2022-11-28T11:24:12.719Z,77.37
2022-11-28T11:25:12.697Z,77.37
2022-11-28T11:26:12.743Z,77.44
2022-11-28T11:27:13.508Z,77.37
2022-11-28T11:28:12.689Z,77.44
2022-11-28T11:29:12.655Z,77.33
2022-11-28T11:30:12.676Z,77.54
2022-11-28T11:31:12.735Z,77.47
2022-11-28T11:32:12.721Z,77.44
2022-11-28T11:33:12.604Z,77.33
2022-11-28T11:34:13.537Z,77.44
2022-11-28T11:35:12.586Z,77.54
2022-11-28T11:36:12.597Z,77.64
2022-11-28T11:37:12.571Z,77.64
2022-11-28T11:38:12.605Z,77.64
2022-11-28T11:39:12.561Z,77.74
2022-11-28T11:40:12.617Z,77.54
2022-11-28T11:41:12.514Z,77.47
2022-11-28T11:42:12.504Z,77.64
2022-11-28T11:43:12.491Z,77.68
2022-11-28T11:44:12.544Z,77.64
2022-11-28T11:45:12.466Z,77.68
2022-11-28T11:46:12.597Z,77.37
2022-11-28T11:47:12.469Z,77.26
2022-11-28T11:48:12.441Z,77.47
2022-11-28T11:49:13.828Z,77.58
2022-11-28T11:59:04.489Z,78.23
2022-11-28T12:01:19.192Z,78.64
2022-11-28T12:06:12.212Z,78.64
2022-11-28T12:06:43.421Z,78.54
2022-11-28T12:07:42.465Z,78.54
2022-11-28T12:08:42.411Z,79.16
2022-11-28T12:09:42.848Z,78.64
2022-11-28T12:10:42.425Z,78.54
2022-11-28T12:11:46.754Z,78.40
2022-11-28T12:12:42.385Z,78.92
2022-11-28T12:13:42.345Z,78.71
2022-11-28T12:14:42.961Z,78.36
2022-11-28T12:15:42.362Z,78.36
2022-11-28T12:16:42.398Z,78.12
2022-11-28T12:17:52.409Z,78.23
2022-11-28T12:18:43.288Z,78.02
2022-11-28T12:19:42.283Z,78.23
2022-11-28T12:20:42.274Z,77.71
2022-11-28T12:21:42.296Z,77.71
2022-11-28T12:22:42.251Z,77.68
2022-11-28T12:23:42.270Z,77.78
2022-11-28T12:24:42.227Z,77.68
2022-11-28T12:25:42.220Z,77.78
2022-11-28T12:26:42.201Z,77.78
2022-11-28T12:27:42.194Z,78.09
2022-11-28T12:28:42.188Z,77.68
2022-11-28T12:29:42.664Z,78.23
2022-11-28T12:30:44.799Z,77.92
2022-11-28T12:31:42.231Z,77.71
2022-11-28T12:32:42.131Z,78.12
2022-11-28T12:33:42.127Z,78.33
2022-11-28T12:34:42.157Z,78.43
2022-11-28T12:35:42.224Z,78.43
2022-11-28T12:36:42.814Z,78.57
2022-11-28T12:38:09.888Z,78.88
2022-11-28T12:38:43.076Z,78.88
2022-11-28T12:39:42.534Z,78.57
2022-11-28T12:40:42.068Z,78.78
2022-11-28T12:41:42.067Z,79.12
2022-11-28T12:42:42.060Z,79.12
2022-11-28T12:43:42.019Z,78.71
2022-11-28T12:44:42.031Z,78.81
2022-11-28T12:45:41.984Z,78.81
2022-11-28T12:46:42.063Z,78.50
2022-11-28T12:47:42.000Z,78.81
2022-11-28T12:48:42.127Z,78.50
2022-11-28T12:49:42.653Z,78.40
2022-11-28T12:50:41.939Z,78.71
2022-11-28T12:51:41.942Z,78.81
2022-11-28T12:52:41.914Z,78.71
2022-11-28T12:53:41.957Z,78.50
2022-11-28T12:54:41.906Z,78.81
2022-11-28T12:55:41.883Z,78.71
2022-11-28T12:56:41.923Z,78.81
2022-11-28T12:57:41.873Z,78.75
2022-11-28T12:58:41.839Z,78.64
2022-11-28T12:59:42.507Z,78.85
2022-11-28T13:00:41.826Z,78.44
2022-11-28T13:01:41.898Z,78.54
2022-11-28T13:02:41.979Z,78.54
2022-11-28T13:03:41.798Z,78.71
2022-11-28T13:04:42.515Z,78.44
2022-11-28T13:05:41.802Z,78.85